createdAt,value
2018-09-04T00:01:58.165Z,91.70
2018-09-04T00:04:03.859Z,91.70
2018-09-04T00:06:08.298Z,91.70
2018-09-04T00:08:13.238Z,91.60
2018-09-04T00:10:17.456Z,91.50
2018-09-04T00:12:22.467Z,91.50
2018-09-04T00:14:26.414Z,91.40
2018-09-04T00:16:30.601Z,91.30
2018-09-04T00:18:34.613Z,91.20
2018-09-04T00:20:38.496Z,91.10
2018-09-04T00:22:42.705Z,91.00
2018-09-04T00:24:48.144Z,90.80
2018-09-04T00:26:52.056Z,90.70
2018-09-04T00:28:56.061Z,90.60
2018-09-04T00:31:01.195Z,90.40
2018-09-04T00:33:05.262Z,90.50
2018-09-04T00:35:11.567Z,90.80
2018-09-04T00:37:15.468Z,91.00
2018-09-04T00:39:19.349Z,90.90
2018-09-04T00:41:23.504Z,90.90
2018-09-04T00:43:27.377Z,91.20
2018-09-04T00:45:31.250Z,91.00
2018-09-04T00:47:36.024Z,90.90
2018-09-04T00:49:39.941Z,90.70
2018-09-04T00:51:43.853Z,90.70
2018-09-04T00:53:47.768Z,90.60
2018-09-04T00:55:51.637Z,90.50
2018-09-04T00:57:55.672Z,91.00
2018-09-04T00:59:59.569Z,90.90
2018-09-04T01:02:03.544Z,91.00
2018-09-04T01:04:07.511Z,91.10
2018-09-04T01:06:12.797Z,91.20
2018-09-04T01:08:16.679Z,91.20
2018-09-04T01:10:22.441Z,91.60
2018-09-04T01:12:26.801Z,91.90
2018-09-04T01:14:30.712Z,91.60
2018-09-04T01:16:40.821Z,91.80
2018-09-04T01:18:44.799Z,91.80
2018-09-04T01:20:49.427Z,91.70
2018-09-04T01:22:53.266Z,92.00
2018-09-04T01:24:59.193Z,92.60
2018-09-04T01:27:03.047Z,92.70
2018-09-04T01:29:07.660Z,92.70
2018-09-04T01:31:13.110Z,93.20
2018-09-04T01:33:17.569Z,93.60
2018-09-04T01:35:21.514Z,93.90
2018-09-04T01:37:25.717Z,93.60
2018-09-04T01:39:29.716Z,93.30
2018-09-04T01:41:33.629Z,93.10
2018-09-04T01:43:38.349Z,93.10
2018-09-04T01:45:43.162Z,93.10
2018-09-04T01:47:47.997Z,93.00
2018-09-04T01:49:52.551Z,93.10
2018-09-04T01:51:56.620Z,93.10
2018-09-04T01:54:03.721Z,93.00
2018-09-04T01:56:08.542Z,93.10
2018-09-04T01:58:12.749Z,93.00
2018-09-04T02:00:17.524Z,92.80
2018-09-04T02:02:22.745Z,92.90
2018-09-04T02:04:26.696Z,92.70
2018-09-04T02:06:30.584Z,92.40
2018-09-04T02:08:34.809Z,92.30
2018-09-04T02:10:38.832Z,92.40
2018-09-04T02:12:42.798Z,92.70
2018-09-04T02:14:48.178Z,92.90
2018-09-04T02:16:52.244Z,93.20
2018-09-04T02:18:56.341Z,93.10
2018-09-04T02:21:04.092Z,93.00
2018-09-04T02:23:09.041Z,92.80
2018-09-04T02:25:12.949Z,92.50
2018-09-04T02:27:21.799Z,92.40
2018-09-04T02:29:25.669Z,92.80
2018-09-04T02:31:31.090Z,92.90
2018-09-04T02:33:35.568Z,92.90
2018-09-04T02:35:43.810Z,92.80
2018-09-04T02:37:49.781Z,92.60
2018-09-04T02:39:58.124Z,92.50
2018-09-04T02:42:02.569Z,92.40
2018-09-04T02:44:08.116Z,92.40
2018-09-04T02:46:13.719Z,92.20
2018-09-04T02:48:21.287Z,92.10
2018-09-04T02:50:28.874Z,92.00
2018-09-04T02:52:33.860Z,91.90
2018-09-04T02:54:39.277Z,91.70
2018-09-04T02:56:44.633Z,91.60
2018-09-04T02:58:50.553Z,91.50
2018-09-04T03:00:54.541Z,91.50
2018-09-04T03:02:59.218Z,91.40
2018-09-04T03:05:03.606Z,91.40
2018-09-04T03:07:09.473Z,91.30
2018-09-04T03:09:14.717Z,91.80
2018-09-04T03:11:20.952Z,91.90
2018-09-04T03:13:25.806Z,92.10
2018-09-04T03:15:31.287Z,92.00
2018-09-04T03:17:35.549Z,92.30
2018-09-04T03:19:40.672Z,92.40
2018-09-04T03:21:45.379Z,92.20
2018-09-04T03:23:50.693Z,92.40
2018-09-04T03:25:56.733Z,92.60
2018-09-04T03:28:01.533Z,92.40
2018-09-04T03:30:06.070Z,92.50
2018-09-04T03:32:11.689Z,92.60
2018-09-04T03:34:15.686Z,92.70
2018-09-04T03:36:20.408Z,93.20
2018-09-04T03:38:24.248Z,93.40
2018-09-04T03:40:30.291Z,93.20
2018-09-04T03:42:34.739Z,93.20
2018-09-04T03:44:41.319Z,92.90
2018-09-04T03:46:47.003Z,93.10
2018-09-04T03:48:52.716Z,93.20
2018-09-04T03:50:56.708Z,93.20
2018-09-04T03:53:00.594Z,93.40
2018-09-04T03:55:04.567Z,93.30
2018-09-04T03:57:08.606Z,93.50
2018-09-04T03:59:12.537Z,93.40
2018-09-04T04:01:16.917Z,93.10
2018-09-04T04:03:20.917Z,92.80
2018-09-04T04:05:24.777Z,92.70
2018-09-04T04:07:32.821Z,92.50
2018-09-04T04:09:36.664Z,92.30
2018-09-04T04:11:41.581Z,92.50
2018-09-04T04:13:45.857Z,92.30
2018-09-04T04:15:49.997Z,92.70
2018-09-04T04:17:54.359Z,93.10
2018-09-04T04:19:59.360Z,93.40
2018-09-04T04:22:03.237Z,93.60
2018-09-04T04:24:07.188Z,93.20
2018-09-04T04:26:11.789Z,93.10
2018-09-04T04:28:15.724Z,93.30
2018-09-04T04:30:22.261Z,93.10
2018-09-04T04:32:27.221Z,93.00
2018-09-04T04:34:31.133Z,92.80
2018-09-04T04:36:35.829Z,92.80
2018-09-04T04:38:40.097Z,93.30
2018-09-04T04:40:43.981Z,93.00
2018-09-04T04:42:47.932Z,92.70
2018-09-04T04:44:51.839Z,93.00
2018-09-04T04:46:55.688Z,93.50
2018-09-04T04:48:59.588Z,93.80
2018-09-04T04:51:03.784Z,93.70
2018-09-04T04:53:07.739Z,93.50
2018-09-04T04:55:11.614Z,93.20
2018-09-04T04:57:15.780Z,93.00
2018-09-04T04:59:19.657Z,92.90
2018-09-04T05:01:25.156Z,92.80
2018-09-04T05:03:29.424Z,92.50
2018-09-04T05:05:33.329Z,92.30
2018-09-04T05:07:37.316Z,92.20
2018-09-04T05:09:45.049Z,92.10
2018-09-04T05:11:49.001Z,92.10
2018-09-04T05:13:52.954Z,92.10
2018-09-04T05:15:56.849Z,92.10
2018-09-04T05:18:00.721Z,92.20
2018-09-04T05:20:04.741Z,92.10
2018-09-04T05:22:08.713Z,92.20
2018-09-04T05:24:19.086Z,92.30
2018-09-04T05:26:24.163Z,92.20
2018-09-04T05:28:28.079Z,92.40
2018-09-04T05:30:32.102Z,92.20
2018-09-04T05:32:42.626Z,92.00
2018-09-04T05:34:46.617Z,91.90
2018-09-04T05:36:50.622Z,91.50
2018-09-04T05:38:54.831Z,91.20
2018-09-04T05:41:00.353Z,90.70
2018-09-04T05:43:06.243Z,90.30
2018-09-04T05:45:11.907Z,90.10
2018-09-04T05:47:15.932Z,89.70
2018-09-04T05:49:29.079Z,89.20
2018-09-04T05:51:34.761Z,89.00
2018-09-04T05:53:38.754Z,88.60
2018-09-04T05:55:43.603Z,88.00
2018-09-04T05:57:47.872Z,88.10
2018-09-04T05:59:51.893Z,88.00
2018-09-04T06:01:56.860Z,88.30
2018-09-04T06:04:01.195Z,88.50
2018-09-04T06:06:08.985Z,87.10
2018-09-04T06:08:14.545Z,87.20
2018-09-04T06:10:18.568Z,86.50
2018-09-04T06:12:27.766Z,86.50
2018-09-04T06:14:32.556Z,86.70
2018-09-04T06:16:36.801Z,86.90
2018-09-04T06:18:41.242Z,86.70
2018-09-04T06:20:48.065Z,86.20
2018-09-04T06:22:54.426Z,86.60
2018-09-04T06:25:00.634Z,86.80
2018-09-04T06:27:04.693Z,87.30
2018-09-04T06:29:08.996Z,87.10
2018-09-04T06:31:13.805Z,86.80
2018-09-04T06:33:18.505Z,86.60
2018-09-04T06:35:22.798Z,86.40
2018-09-04T06:37:26.765Z,85.90
2018-09-04T06:39:31.495Z,86.00
2018-09-04T06:41:36.340Z,86.30
2018-09-04T06:43:40.612Z,88.30
2018-09-04T06:45:44.480Z,90.10
2018-09-04T06:47:59.405Z,90.90
2018-09-04T06:50:04.096Z,90.90
2018-09-04T06:52:08.061Z,91.70
2018-09-04T06:54:12.098Z,92.30
2018-09-04T06:56:16.043Z,92.50
2018-09-04T06:58:20.178Z,92.60
2018-09-04T07:00:25.319Z,92.40
2018-09-04T07:02:29.630Z,92.50
2018-09-04T07:04:33.694Z,92.30
2018-09-04T07:06:37.601Z,92.20
2018-09-04T07:08:42.299Z,91.60
2018-09-04T07:10:46.178Z,91.40
2018-09-04T07:12:51.334Z,91.00
2018-09-04T07:14:56.634Z,90.70
2018-09-04T07:17:00.570Z,90.20
2018-09-04T07:19:04.589Z,90.30
2018-09-04T07:21:09.134Z,90.30
2018-09-04T07:23:14.585Z,89.80
2018-09-04T07:25:19.432Z,89.20
2018-09-04T07:27:23.314Z,88.80
2018-09-04T07:29:27.273Z,88.00
2018-09-04T07:31:33.842Z,87.50
2018-09-04T07:33:39.016Z,87.10
2018-09-04T07:35:44.120Z,85.00
2018-09-04T07:37:49.396Z,83.80
2018-09-04T07:39:54.249Z,83.00
2018-09-04T07:41:58.271Z,82.20
2018-09-04T07:44:02.234Z,83.10
2018-09-04T07:46:07.744Z,82.50
2018-09-04T07:48:12.502Z,82.30
2018-09-04T07:50:19.731Z,81.70
2018-09-04T07:52:25.776Z,80.30
2018-09-04T07:54:29.714Z,78.60
2018-09-04T07:56:33.758Z,78.40
2018-09-04T07:58:40.000Z,80.00
2018-09-04T08:00:43.927Z,81.10
2018-09-04T08:02:47.869Z,80.10
2018-09-04T08:04:53.182Z,80.30
2018-09-04T08:06:57.091Z,79.60
2018-09-04T08:09:02.519Z,79.00
2018-09-04T08:11:07.703Z,76.10
2018-09-04T08:13:11.596Z,75.30
2018-09-04T08:15:16.531Z,75.00
2018-09-04T08:17:20.622Z,74.30
2018-09-04T08:19:24.629Z,71.90
2018-09-04T08:21:30.647Z,72.60
2018-09-04T08:23:36.808Z,72.50
2018-09-04T08:25:44.498Z,71.80
2018-09-04T08:27:49.460Z,70.60
2018-09-04T08:29:54.747Z,68.40
2018-09-04T08:31:58.751Z,69.40
2018-09-04T08:34:02.663Z,69.10
2018-09-04T08:36:06.961Z,68.80
2018-09-04T08:38:11.009Z,67.50
2018-09-04T08:40:17.326Z,67.40
2018-09-04T08:42:24.409Z,66.20
2018-09-04T08:44:28.392Z,64.90
2018-09-04T08:46:32.237Z,65.90
2018-09-04T08:48:37.361Z,66.30
2018-09-04T08:50:41.405Z,65.90
2018-09-04T08:52:46.700Z,64.60
2018-09-04T08:54:52.305Z,63.50
2018-09-04T08:56:56.884Z,62.60
2018-09-04T08:59:00.765Z,62.10
2018-09-04T09:01:05.297Z,61.20
2018-09-04T09:03:09.815Z,60.60
2018-09-04T09:05:13.782Z,59.70
2018-09-04T09:07:18.717Z,58.40
2018-09-04T09:09:22.653Z,58.20
2018-09-04T09:11:28.308Z,58.70
2018-09-04T09:13:32.538Z,58.00
2018-09-04T09:15:36.505Z,56.70
2018-09-04T09:17:41.299Z,56.30
2018-09-04T09:19:45.962Z,56.30
2018-09-04T09:21:49.853Z,55.80
2018-09-04T09:23:53.705Z,54.30
2018-09-04T09:25:59.297Z,54.10
2018-09-04T09:28:06.412Z,56.40
2018-09-04T09:30:14.829Z,56.90
2018-09-04T09:32:18.779Z,57.10
2018-09-04T09:34:23.544Z,57.60
2018-09-04T09:36:27.486Z,57.50
2018-09-04T09:38:33.053Z,56.40
2018-09-04T09:40:37.300Z,56.80
2018-09-04T09:42:42.658Z,56.50
2018-09-04T09:44:48.784Z,55.50
2018-09-04T09:47:04.389Z,54.70
2018-09-04T09:49:09.403Z,54.30
2018-09-04T09:51:18.606Z,53.80
2018-09-04T09:53:22.692Z,54.20
2018-09-04T09:55:28.240Z,53.90
2018-09-04T09:57:37.493Z,53.50
2018-09-04T09:59:43.506Z,54.10
2018-09-04T10:01:53.393Z,53.80
2018-09-04T10:03:59.202Z,53.10
2018-09-04T10:06:03.165Z,53.10
2018-09-04T10:08:07.555Z,53.00
2018-09-04T10:10:12.661Z,52.80
2018-09-04T10:14:27.214Z,53.80
2018-09-04T10:16:32.299Z,53.40
2018-09-04T10:18:36.901Z,54.80
2018-09-04T10:20:42.178Z,53.30
2018-09-04T10:22:46.470Z,53.20
2018-09-04T10:24:50.507Z,52.20
2018-09-04T10:26:54.552Z,51.40
2018-09-04T10:28:59.829Z,51.20
2018-09-04T10:31:03.740Z,51.00
2018-09-04T10:33:07.701Z,50.30
2018-09-04T10:35:11.852Z,50.20
2018-09-04T10:37:15.752Z,50.90
2018-09-04T10:39:26.824Z,50.90
2018-09-04T10:41:31.025Z,49.90
2018-09-04T10:43:35.518Z,50.30
2018-09-04T10:45:44.564Z,50.10
2018-09-04T10:47:50.029Z,50.00
2018-09-04T10:49:53.953Z,49.50
2018-09-04T10:51:57.986Z,50.00
2018-09-04T10:54:03.529Z,50.60
2018-09-04T10:56:07.545Z,49.90
2018-09-04T10:58:11.856Z,49.60
2018-09-04T11:00:17.318Z,49.50
2018-09-04T11:02:22.090Z,48.40
2018-09-04T11:04:27.476Z,47.90
2018-09-04T11:06:31.510Z,48.10
2018-09-04T11:08:42.293Z,47.20
2018-09-04T11:10:48.419Z,46.00
2018-09-04T11:12:53.462Z,46.30
2018-09-04T11:14:58.166Z,47.30
2018-09-04T11:17:02.988Z,47.60
2018-09-04T11:19:06.930Z,47.30
2018-09-04T11:21:11.809Z,46.10
2018-09-04T11:23:18.632Z,47.00
2018-09-04T11:25:22.540Z,47.40
2018-09-04T11:27:26.448Z,46.60
2018-09-04T11:29:30.713Z,46.70
2018-09-04T11:31:35.372Z,46.20
2018-09-04T11:33:39.468Z,45.30
2018-09-04T11:35:44.681Z,46.10
2018-09-04T11:37:48.587Z,46.80
2018-09-04T11:39:53.628Z,45.90
2018-09-04T11:41:57.774Z,45.60
2018-09-04T11:44:02.530Z,45.30
2018-09-04T11:46:07.642Z,44.30
2018-09-04T11:48:17.083Z,43.50
2018-09-04T11:50:21.018Z,43.60
2018-09-04T11:52:24.988Z,43.10
2018-09-04T11:54:29.322Z,42.80
2018-09-04T11:56:38.432Z,42.70
2018-09-04T11:58:43.000Z,42.10
2018-09-04T12:00:48.410Z,42.50
2018-09-04T12:02:52.410Z,41.20
2018-09-04T12:04:56.504Z,42.20
2018-09-04T12:07:00.967Z,41.30
2018-09-04T12:09:06.160Z,41.30
2018-09-04T12:11:10.033Z,41.50
2018-09-04T12:13:18.181Z,41.80
2018-09-04T12:15:27.047Z,42.40
2018-09-04T12:17:30.998Z,42.60
2018-09-04T12:19:46.276Z,41.70
2018-09-04T12:21:50.321Z,41.30
2018-09-04T12:23:55.848Z,40.50
2018-09-04T12:26:00.889Z,40.20
2018-09-04T12:28:04.794Z,41.10
2018-09-04T12:30:09.146Z,41.70
2018-09-04T12:32:13.645Z,41.90
2018-09-04T12:34:18.995Z,43.00
2018-09-04T12:36:23.299Z,43.80
2018-09-04T12:38:35.449Z,44.40
2018-09-04T12:40:40.796Z,44.10
2018-09-04T12:42:45.533Z,43.80
2018-09-04T12:44:50.414Z,42.70
2018-09-04T12:46:58.888Z,42.10
2018-09-04T12:49:04.273Z,41.30
2018-09-04T12:51:09.022Z,40.50
2018-09-04T12:53:12.936Z,40.40
2018-09-04T12:55:18.300Z,40.30
2018-09-04T12:57:22.815Z,41.60
2018-09-04T12:59:31.176Z,42.90
2018-09-04T13:01:35.508Z,42.80
2018-09-04T13:03:42.565Z,42.60
2018-09-04T13:05:58.713Z,42.60
2018-09-04T13:08:02.630Z,41.70
2018-09-04T13:10:07.556Z,41.50
2018-09-04T13:12:12.025Z,41.00
2018-09-04T13:14:17.459Z,40.50
2018-09-04T13:16:29.263Z,40.50
2018-09-04T13:18:35.246Z,40.20
2018-09-04T13:20:39.587Z,41.00
2018-09-04T13:22:43.499Z,42.40
2018-09-04T13:24:49.370Z,42.00
2018-09-04T13:26:54.618Z,42.20
2018-09-04T13:28:59.302Z,42.20
2018-09-04T13:31:03.356Z,41.50
2018-09-04T13:33:08.136Z,41.30
2018-09-04T13:35:12.036Z,40.70
2018-09-04T13:37:17.381Z,39.30
2018-09-04T13:39:41.097Z,38.60
2018-09-04T13:41:44.999Z,38.10
2018-09-04T13:43:50.257Z,37.60
2018-09-04T13:46:08.370Z,37.60
2018-09-04T13:48:13.895Z,37.70
2018-09-04T13:50:19.936Z,37.80
2018-09-04T13:52:27.236Z,38.00
2018-09-04T13:54:32.017Z,37.50
2018-09-04T13:56:37.836Z,38.00
2018-09-04T13:58:43.306Z,37.50
2018-09-04T14:00:47.366Z,38.00
2018-09-04T14:02:52.970Z,38.40
2018-09-04T14:04:57.369Z,38.80
2018-09-04T14:07:03.013Z,38.70
2018-09-04T14:09:10.895Z,38.20
2018-09-04T14:11:17.199Z,38.20
2018-09-04T14:13:23.361Z,37.70
2018-09-04T14:15:34.716Z,37.50
2018-09-04T14:17:39.492Z,36.70
2018-09-04T14:19:44.031Z,36.50
2018-09-04T14:21:49.769Z,36.60
2018-09-04T14:23:53.657Z,36.50
2018-09-04T14:25:58.522Z,37.20
2018-09-04T14:28:03.347Z,37.00
2018-09-04T14:30:18.943Z,37.10
2018-09-04T14:32:16.994Z,36.90
2018-09-04T14:34:21.857Z,36.00
2018-09-04T14:36:28.624Z,36.00
2018-09-04T14:38:32.465Z,35.90
2018-09-04T14:40:36.384Z,35.30
2018-09-04T14:42:40.795Z,35.40
2018-09-04T14:44:44.742Z,35.60
2018-09-04T14:46:49.320Z,35.80
2018-09-04T14:48:54.385Z,36.30
2018-09-04T14:50:59.041Z,36.50
2018-09-04T14:53:05.037Z,37.90
2018-09-04T14:55:11.680Z,38.00
2018-09-04T14:57:17.202Z,38.40
2018-09-04T14:59:21.540Z,38.30
2018-09-04T15:01:27.072Z,39.10
2018-09-04T15:03:31.012Z,38.70
2018-09-04T15:05:35.565Z,38.10
2018-09-04T15:07:41.869Z,37.70
2018-09-04T15:09:45.824Z,37.70
2018-09-04T15:11:49.689Z,37.80
2018-09-04T15:13:53.665Z,37.60
2018-09-04T15:16:00.203Z,37.60
2018-09-04T15:18:04.774Z,38.00
2018-09-04T15:20:09.077Z,38.40
2018-09-04T15:22:12.990Z,38.40
2018-09-04T15:24:17.186Z,38.70
2018-09-04T15:26:21.472Z,38.90
2018-09-04T15:28:32.400Z,39.00
2018-09-04T15:30:36.553Z,38.30
2018-09-04T15:32:40.738Z,38.20
2018-09-04T15:34:46.846Z,38.20
2018-09-04T15:36:50.842Z,39.40
2018-09-04T15:38:55.343Z,40.50
2018-09-04T15:40:59.284Z,40.60
2018-09-04T15:43:03.290Z,40.90
2018-09-04T15:45:09.109Z,40.80
2018-09-04T15:47:15.201Z,40.90
2018-09-04T15:49:24.333Z,41.20
2018-09-04T15:51:29.628Z,42.00
2018-09-04T15:53:34.488Z,41.80
2018-09-04T15:55:38.505Z,42.20
2018-09-04T15:57:44.608Z,42.20
2018-09-04T15:59:48.525Z,41.90
2018-09-04T16:01:53.361Z,42.10
2018-09-04T16:03:58.319Z,42.10
2018-09-04T16:06:02.282Z,42.40
2018-09-04T16:08:06.218Z,42.90
2018-09-04T16:10:13.717Z,42.80
2018-09-04T16:12:17.726Z,43.10
2018-09-04T16:14:25.289Z,43.60
2018-09-04T16:16:29.911Z,44.80
2018-09-04T16:18:36.096Z,44.80
2018-09-04T16:20:42.855Z,45.00
2018-09-04T16:22:51.896Z,44.60
2018-09-04T16:24:56.568Z,44.30
2018-09-04T16:27:03.296Z,44.70
2018-09-04T16:29:11.706Z,44.70
2018-09-04T16:31:15.648Z,44.40
2018-09-04T16:33:19.621Z,44.00
2018-09-04T16:35:24.689Z,44.00
2018-09-04T16:37:28.811Z,44.40
2018-09-04T16:39:32.781Z,44.70
2018-09-04T16:41:37.281Z,44.90
2018-09-04T16:43:42.365Z,45.20
2018-09-04T16:45:57.222Z,45.60
2018-09-04T16:48:09.269Z,45.90
2018-09-04T16:50:21.576Z,46.10
2018-09-04T16:52:36.790Z,46.40
2018-09-04T16:54:53.807Z,46.60
2018-09-04T16:57:05.636Z,47.10
2018-09-04T16:59:13.232Z,47.60
2018-09-04T17:01:36.525Z,48.40
2018-09-04T17:03:46.451Z,48.60
2018-09-04T17:06:01.337Z,49.00
2018-09-04T17:08:19.486Z,49.30
2018-09-04T17:10:35.659Z,49.50
2018-09-04T17:12:55.589Z,51.30
2018-09-04T17:15:29.551Z,54.60
2018-09-04T17:17:40.291Z,57.10
2018-09-04T17:19:46.747Z,58.60
2018-09-04T17:21:55.499Z,60.10
2018-09-04T17:24:19.356Z,60.90
2018-09-04T17:26:37.793Z,61.00
2018-09-04T17:28:59.632Z,61.20
2018-09-04T17:31:20.043Z,61.90
2018-09-04T17:33:39.302Z,62.30
2018-09-04T17:35:56.347Z,62.10
2018-09-04T17:38:09.245Z,62.40
2018-09-04T17:40:26.935Z,62.20
2018-09-04T17:42:46.819Z,61.90
2018-09-04T17:44:54.223Z,61.70
2018-09-04T17:47:03.573Z,61.40
2018-09-04T17:49:18.503Z,61.70
2018-09-04T17:51:26.147Z,61.50
2018-09-04T17:53:39.464Z,61.40
2018-09-04T17:55:59.311Z,62.00
2018-09-04T17:58:11.437Z,62.30
2018-09-04T18:00:33.754Z,62.80
2018-09-04T18:02:41.679Z,63.20
2018-09-04T18:04:48.620Z,63.40
2018-09-04T18:06:55.559Z,63.50
2018-09-04T18:09:03.842Z,64.00
2018-09-04T18:11:14.096Z,64.50
2018-09-04T18:13:21.256Z,64.20
2018-09-04T18:17:46.172Z,63.80
2018-09-04T18:19:53.434Z,64.20
2018-09-04T18:22:01.583Z,64.80
2018-09-04T18:24:16.606Z,65.50
2018-09-04T18:26:31.334Z,66.40
2018-09-04T18:28:45.740Z,66.40
2018-09-04T18:33:46.062Z,66.80
2018-09-04T18:36:32.233Z,66.50
2018-09-04T18:41:25.033Z,67.20
2018-09-04T18:43:43.369Z,68.10
2018-09-04T18:46:03.415Z,69.10
2018-09-04T18:48:13.412Z,69.40
2018-09-04T18:50:30.199Z,69.60
2018-09-04T18:52:35.528Z,70.10
2018-09-04T18:54:47.515Z,70.40
2018-09-04T18:56:57.403Z,70.30
2018-09-04T18:59:03.776Z,70.20
2018-09-04T19:01:17.820Z,70.60
2018-09-04T19:03:24.509Z,70.70
2018-09-04T19:05:36.811Z,70.30
2018-09-04T19:07:46.697Z,70.20
2018-09-04T19:09:53.524Z,69.60
2018-09-04T19:12:02.911Z,69.30
2018-09-04T19:14:12.527Z,69.30
2018-09-04T19:16:23.712Z,68.60
2018-09-04T19:18:28.469Z,68.20
2018-09-04T19:20:39.156Z,67.70
2018-09-04T19:22:49.230Z,67.10
2018-09-04T19:25:01.225Z,66.40
2018-09-04T19:27:16.177Z,66.10
2018-09-04T19:29:23.949Z,65.00
2018-09-04T19:31:31.256Z,64.60
2018-09-04T19:33:36.078Z,64.60
2018-09-04T19:35:47.101Z,64.40
2018-09-04T19:37:54.529Z,64.10
2018-09-04T19:40:01.521Z,64.50
2018-09-04T19:42:12.373Z,65.30
2018-09-04T19:44:17.518Z,65.80
2018-09-04T19:46:24.176Z,65.90
2018-09-04T19:48:35.340Z,65.30
2018-09-04T19:50:43.386Z,64.80
2018-09-04T19:52:52.783Z,64.60
2018-09-04T19:55:04.550Z,64.50
2018-09-04T19:57:14.100Z,63.90
2018-09-04T19:59:21.503Z,63.30
2018-09-04T20:01:31.484Z,62.80
2018-09-04T20:03:37.215Z,62.90
2018-09-04T20:05:45.700Z,62.80
2018-09-04T20:07:54.439Z,62.60
2018-09-04T20:09:58.482Z,62.40
2018-09-04T20:12:05.174Z,63.20
2018-09-04T20:14:10.772Z,64.20
2018-09-04T20:16:21.897Z,65.10
2018-09-04T20:18:35.014Z,65.30
2018-09-04T20:20:40.065Z,65.20
2018-09-04T20:22:47.130Z,65.80
2018-09-04T20:24:51.978Z,65.80
2018-09-04T20:26:55.950Z,66.10
2018-09-04T20:29:00.788Z,66.30
2018-09-04T20:31:07.243Z,67.00
2018-09-04T20:33:11.177Z,67.10
2018-09-04T20:35:15.355Z,67.30
2018-09-04T20:37:20.676Z,67.10
2018-09-04T20:39:24.652Z,67.40
2018-09-04T20:41:28.649Z,67.30
2018-09-04T20:43:34.862Z,67.30
2018-09-04T20:45:39.670Z,68.00
2018-09-04T20:47:44.572Z,68.60
2018-09-04T20:49:50.943Z,69.30
2018-09-04T20:51:55.710Z,69.40
2018-09-04T20:54:00.307Z,69.90
2018-09-04T20:56:04.252Z,70.30
2018-09-04T20:58:20.216Z,70.90
2018-09-04T21:00:39.205Z,71.20
2018-09-04T21:02:54.361Z,72.10
2018-09-04T21:05:10.353Z,73.90
2018-09-04T21:07:21.911Z,74.80
2018-09-04T21:09:41.820Z,75.80
2018-09-04T21:11:45.761Z,76.60
2018-09-04T21:13:51.470Z,79.00
2018-09-04T21:15:56.375Z,79.20
2018-09-04T21:18:00.542Z,78.80
2018-09-04T21:20:05.892Z,79.60
2018-09-04T21:22:13.409Z,79.20
2018-09-04T21:24:19.585Z,79.40
2018-09-04T21:26:23.541Z,80.20
2018-09-04T21:28:29.285Z,81.60
2018-09-04T21:30:33.251Z,83.60
2018-09-04T21:32:37.150Z,85.00
2018-09-04T21:34:41.489Z,86.60
2018-09-04T21:36:47.742Z,87.40
2018-09-04T21:38:53.498Z,87.60
2018-09-04T21:40:59.255Z,87.50
2018-09-04T21:43:07.489Z,88.00
2018-09-04T21:45:18.036Z,88.80
2018-09-04T21:47:21.937Z,88.20
2018-09-04T21:49:28.966Z,87.00
2018-09-04T21:51:36.281Z,86.10
2018-09-04T21:53:42.329Z,86.60
2018-09-04T21:55:47.773Z,86.60
2018-09-04T21:57:53.634Z,87.10
2018-09-04T21:59:58.364Z,87.60
2018-09-04T22:02:14.790Z,89.00
2018-09-04T22:04:25.673Z,89.60
2018-09-04T22:06:31.979Z,89.40
2018-09-04T22:08:40.729Z,89.80
2018-09-04T22:10:51.777Z,89.60
2018-09-04T22:12:59.415Z,89.80
2018-09-04T22:15:28.262Z,90.00
2018-09-04T22:17:35.799Z,90.30
2018-09-04T22:19:41.637Z,90.60
2018-09-04T22:21:48.713Z,90.40
2018-09-04T22:24:01.428Z,90.30
2018-09-04T22:26:08.991Z,90.30
2018-09-04T22:28:16.243Z,90.60
2018-09-04T22:30:30.545Z,90.90
2018-09-04T22:32:36.511Z,91.00
2018-09-04T22:34:44.501Z,90.70
2018-09-04T22:36:52.446Z,90.80
2018-09-04T22:38:56.997Z,90.80
2018-09-04T22:41:02.524Z,90.60
2018-09-04T22:43:07.479Z,90.40
2018-09-04T22:45:13.800Z,90.30
2018-09-04T22:47:19.944Z,90.50
2018-09-04T22:49:24.081Z,90.80
2018-09-04T22:51:35.981Z,91.00
2018-09-04T22:53:40.285Z,91.20
2018-09-04T22:55:45.558Z,91.30
2018-09-04T22:57:51.548Z,91.50
2018-09-04T22:59:59.418Z,91.70
2018-09-04T23:02:05.513Z,91.50
2018-09-04T23:04:12.192Z,91.50
2018-09-04T23:06:16.984Z,91.00
2018-09-04T23:08:23.301Z,90.60
2018-09-04T23:10:27.886Z,90.20
2018-09-04T23:12:32.430Z,90.00
2018-09-04T23:14:36.912Z,89.60
2018-09-04T23:16:42.039Z,89.10
2018-09-04T23:18:47.821Z,88.70
2018-09-04T23:20:52.533Z,88.70
2018-09-04T23:22:57.916Z,87.80
2018-09-04T23:25:04.075Z,87.60
2018-09-04T23:27:08.666Z,88.90
2018-09-04T23:29:13.406Z,88.20
2018-09-04T23:31:21.281Z,88.90
2018-09-04T23:33:27.741Z,89.20
2018-09-04T23:35:33.716Z,89.40
2018-09-04T23:37:38.307Z,89.70
2018-09-04T23:39:42.207Z,89.40
2018-09-04T23:41:46.235Z,90.20
2018-09-04T23:43:51.105Z,90.60
2018-09-04T23:45:55.054Z,90.70
2018-09-04T23:47:59.795Z,90.60
2018-09-04T23:50:03.852Z,90.70
2018-09-04T23:52:08.384Z,91.00
2018-09-04T23:54:12.271Z,90.60
2018-09-04T23:56:16.858Z,90.40
2018-09-04T23:58:22.066Z,90.60
